This is the latest recevied weather packets stored in our database for station/object KO4IEJ-15. If no packets are shown the sender has not sent any weather packets the latest 10 day(s).
| Time | Temp. | Humidity | Pressure | Rain* | Wind** | Luminosity | Snow |
|---|---|---|---|---|---|---|---|
| 1777567539 | 29.44° C | 65% | 1011 hPa | 0 mm | - | - | - |
| 1777564834 | 28.33° C | 73% | 1011.2 hPa | 0 mm | - | - | - |
| 1777560338 | 26.11° C | 77% | 1011.5 hPa | 0 mm | - | - | - |
| 1777556733 | 23.89° C | 86% | 1011.5 hPa | 0 mm | - | - | - |
| 1777554935 | 23.89° C | 87% | 1011.6 hPa | 0 mm | - | - | - |
| 1777553136 | 22.78° C | 93% | 1011.8 hPa | 0 mm | - | - | - |
| 1777551332 | 22.22° C | 93% | 1011.8 hPa | 0 mm | - | - | - |
| 1777548630 | 21.67° C | 95% | 1011.5 hPa | 0 mm | - | - | - |
| 1777545039 | 21.67° C | 95% | 1010.3 hPa | 0 mm | - | - | - |
| 1777539629 | 21.67° C | 94% | 1010.6 hPa | 0 mm | - | - | - |
| 1777536043 | 21.67° C | 93% | 1010.7 hPa | 0 mm | - | - | - |
| 1777535138 | 21.67° C | 93% | 1010.9 hPa | 0 mm | - | - | - |
| 1777529737 | 22.22° C | 90% | 1011.7 hPa | 0 mm | - | - | - |
| 1777525228 | 22.78° C | 84% | 1012.9 hPa | 0 mm | - | - | - |
| 1777521629 | 24.44° C | 78% | 1013.3 hPa | 0 mm | - | - | - |
| 1777516229 | 25.56° C | 77% | 1012.8 hPa | 0 mm | - | - | - |
| 1777513530 | 26.67° C | 71% | 1012.4 hPa | 0 mm | - | - | - |
| 1777512632 | 27.22° C | 69% | 1011.9 hPa | 0 mm | - | - | - |
| 1777509928 | 27.78° C | 67% | 1011.1 hPa | 0 mm | - | - | - |
| 1777509038 | 27.78° C | 62% | 1010.5 hPa | 0 mm | - | - | - |
| 1777492832 | 30.56° C | 55% | 1012.1 hPa | 0 mm | - | - | - |
| 1777467631 | 21.67° C | 94% | 1017.4 hPa | 0 mm | - | - | - |
| 1777466733 | 21.11° C | 97% | 1017.7 hPa | 0 mm | - | - | - |
| 1777465830 | 20.56° C | 99% | 1017.1 hPa | 0 mm | - | - | - |
| 1777464037 | 19.44° C | 98% | 1016.7 hPa | 0 mm | - | - | - |
* Rain latest hour (hover to see other rain measurements)
** Current wind speed in m/s (hover to see current wind gust speed)